createdAt,value
2018-05-31T00:01:14.868Z,13.52
2018-05-31T00:03:42.426Z,9.05
2018-05-31T00:06:09.966Z,7.85
2018-05-31T00:08:37.589Z,7.80
2018-05-31T00:11:05.175Z,6.35
2018-05-31T00:13:32.760Z,6.68
2018-05-31T00:16:00.310Z,7.53
2018-05-31T00:18:27.865Z,7.22
2018-05-31T00:20:55.424Z,7.47
2018-05-31T00:23:22.985Z,7.07
2018-05-31T00:25:50.537Z,6.28
2018-05-31T00:28:18.093Z,6.25
2018-05-31T00:30:46.410Z,7.00
2018-05-31T00:33:13.982Z,6.90
2018-05-31T00:35:41.541Z,7.35
2018-05-31T00:38:09.082Z,6.35
2018-05-31T00:40:37.474Z,7.82
2018-05-31T00:43:05.040Z,6.50
2018-05-31T00:45:32.623Z,7.40
2018-05-31T00:48:00.213Z,7.70
2018-05-31T00:50:27.768Z,6.90
2018-05-31T00:52:55.338Z,8.20
2018-05-31T00:55:34.925Z,8.00
2018-05-31T00:58:03.271Z,7.80
2018-05-31T01:00:30.834Z,7.15
2018-05-31T01:02:58.394Z,7.75
2018-05-31T01:05:25.978Z,8.20
2018-05-31T01:07:54.337Z,7.80
2018-05-31T01:10:21.905Z,8.02
2018-05-31T01:12:49.465Z,8.45
2018-05-31T01:15:17.050Z,7.40
2018-05-31T01:17:45.405Z,7.50
2018-05-31T01:20:13.007Z,8.25
2018-05-31T01:22:41.346Z,7.30
2018-05-31T01:25:08.903Z,7.40
2018-05-31T01:27:36.485Z,7.40
2018-05-31T01:30:04.033Z,6.60
2018-05-31T01:32:31.578Z,8.05
2018-05-31T01:34:59.155Z,7.35
2018-05-31T01:37:26.739Z,7.37
2018-05-31T01:39:54.331Z,7.15
2018-05-31T01:42:21.885Z,7.85
2018-05-31T01:44:49.434Z,7.97
2018-05-31T01:47:16.997Z,6.62
2018-05-31T01:49:44.555Z,7.47
2018-05-31T01:52:12.143Z,7.05
2018-05-31T01:54:39.711Z,7.05
2018-05-31T01:57:07.299Z,8.07
2018-05-31T01:59:34.887Z,8.15
2018-05-31T02:02:02.467Z,9.00
2018-05-31T02:04:30.044Z,8.55
2018-05-31T02:06:57.614Z,8.70
2018-05-31T02:09:25.242Z,8.50
2018-05-31T02:11:53.534Z,9.10
2018-05-31T02:14:21.106Z,9.10
2018-05-31T02:16:48.663Z,9.43
2018-05-31T02:19:16.218Z,9.40
2018-05-31T02:21:43.767Z,9.25
2018-05-31T02:24:12.087Z,9.65
2018-05-31T02:26:39.647Z,10.23
2018-05-31T02:29:07.222Z,9.60
2018-05-31T02:31:34.784Z,9.80
2018-05-31T02:34:02.358Z,9.80
2018-05-31T02:36:29.911Z,9.93
2018-05-31T02:38:57.486Z,10.43
2018-05-31T02:41:25.038Z,11.18
2018-05-31T02:43:52.606Z,10.07
2018-05-31T02:46:20.173Z,10.25
2018-05-31T02:48:47.794Z,10.13
2018-05-31T02:51:15.369Z,10.50
2018-05-31T02:53:42.942Z,9.82
2018-05-31T02:56:10.516Z,10.55
2018-05-31T02:58:38.106Z,10.32
2018-05-31T03:01:05.663Z,10.05
2018-05-31T03:03:33.299Z,11.05
2018-05-31T03:06:00.883Z,10.73
2018-05-31T03:08:28.443Z,9.88
2018-05-31T03:10:56.026Z,10.82
2018-05-31T03:13:23.574Z,10.10
2018-05-31T03:15:51.117Z,10.35
2018-05-31T03:18:18.682Z,11.20
2018-05-31T03:20:46.253Z,11.35
2018-05-31T03:23:13.818Z,10.63
2018-05-31T03:25:41.395Z,11.85
2018-05-31T03:28:08.965Z,11.12
2018-05-31T03:30:36.542Z,11.18
2018-05-31T03:33:04.171Z,10.77
2018-05-31T03:35:31.751Z,11.52
2018-05-31T03:37:59.345Z,10.13
2018-05-31T03:40:26.914Z,11.52
2018-05-31T03:42:54.590Z,10.70
2018-05-31T03:45:22.943Z,10.70
2018-05-31T03:47:50.502Z,12.35
2018-05-31T03:50:18.055Z,11.23
2018-05-31T03:52:45.610Z,11.25
2018-05-31T03:55:13.162Z,10.50
2018-05-31T03:57:40.735Z,11.02
2018-05-31T04:00:09.158Z,10.70
2018-05-31T04:02:36.716Z,10.45
2018-05-31T04:05:04.287Z,10.43
2018-05-31T04:07:31.875Z,11.73
2018-05-31T04:10:00.804Z,11.90
2018-05-31T04:12:28.379Z,11.25
2018-05-31T04:14:55.938Z,11.85
2018-05-31T04:17:23.503Z,11.73
2018-05-31T04:19:51.096Z,10.68
2018-05-31T04:22:18.671Z,11.90
2018-05-31T04:24:46.254Z,12.68
2018-05-31T04:27:14.578Z,12.07
2018-05-31T04:29:42.143Z,10.60
2018-05-31T04:32:09.690Z,10.80
2018-05-31T04:34:37.291Z,11.63
2018-05-31T04:37:04.879Z,11.15
2018-05-31T04:39:32.450Z,12.02
2018-05-31T04:42:00.011Z,10.90
2018-05-31T04:44:27.569Z,11.00
2018-05-31T04:46:55.158Z,11.85
2018-05-31T04:49:23.527Z,11.12
2018-05-31T04:51:51.103Z,13.05
2018-05-31T04:54:19.430Z,11.85
2018-05-31T04:56:47.023Z,13.02
2018-05-31T04:59:14.600Z,13.77
2018-05-31T05:01:42.774Z,13.07
2018-05-31T05:04:10.338Z,12.57
2018-05-31T05:06:37.923Z,12.05
2018-05-31T05:09:06.247Z,12.90
2018-05-31T05:11:33.813Z,11.02
2018-05-31T05:14:01.406Z,10.57
2018-05-31T05:16:28.953Z,10.15
2018-05-31T05:18:56.531Z,11.75
2018-05-31T05:21:24.099Z,10.50
2018-05-31T05:23:51.653Z,9.68
2018-05-31T05:26:19.235Z,9.30
2018-05-31T05:28:46.795Z,12.30
2018-05-31T05:31:14.373Z,20.98
2018-05-31T05:33:41.963Z,11.95
2018-05-31T05:36:09.549Z,13.50
2018-05-31T05:38:37.126Z,10.18
2018-05-31T05:41:04.703Z,9.70
2018-05-31T05:43:32.295Z,7.93
2018-05-31T05:45:59.833Z,7.03
2018-05-31T05:48:27.388Z,6.35
2018-05-31T05:50:54.973Z,6.15
2018-05-31T05:53:22.529Z,5.47
2018-05-31T05:55:50.066Z,5.43
2018-05-31T05:58:17.647Z,5.20
2018-05-31T06:00:45.219Z,5.45
2018-05-31T06:03:12.815Z,5.40
2018-05-31T06:05:40.390Z,5.40
2018-05-31T06:08:08.702Z,5.37
2018-05-31T06:10:36.261Z,5.30
2018-05-31T06:13:03.805Z,5.65
2018-05-31T06:15:32.155Z,7.82
2018-05-31T06:17:59.721Z,5.25
2018-05-31T06:20:27.299Z,5.20
2018-05-31T06:22:54.882Z,6.32
2018-05-31T06:25:22.457Z,5.05
2018-05-31T06:27:50.039Z,4.78
2018-05-31T06:30:17.602Z,5.50
2018-05-31T06:32:45.171Z,5.25
2018-05-31T06:35:12.726Z,4.90
2018-05-31T06:37:40.288Z,5.12
2018-05-31T06:40:07.872Z,4.60
2018-05-31T06:42:35.423Z,4.50
2018-05-31T06:45:02.977Z,4.75
2018-05-31T06:47:30.562Z,4.68
2018-05-31T06:49:58.138Z,4.97
2018-05-31T06:52:25.706Z,4.83
2018-05-31T06:54:53.275Z,4.70
2018-05-31T06:57:20.819Z,4.77
2018-05-31T06:59:48.382Z,5.27
2018-05-31T07:02:15.952Z,4.50
2018-05-31T07:04:43.511Z,5.33
2018-05-31T07:07:11.059Z,4.87
2018-05-31T07:09:38.651Z,4.40
2018-05-31T07:12:06.249Z,4.13
2018-05-31T07:14:33.795Z,4.93
2018-05-31T07:17:01.387Z,5.07
2018-05-31T07:19:28.954Z,4.10
2018-05-31T07:21:57.299Z,4.10
2018-05-31T07:24:24.850Z,4.17
2018-05-31T07:26:52.411Z,4.70
2018-05-31T07:29:19.955Z,4.80
2018-05-31T07:31:47.498Z,4.20
2018-05-31T07:34:15.826Z,4.43
2018-05-31T07:36:43.380Z,4.80
2018-05-31T07:39:10.942Z,4.20
2018-05-31T07:41:38.544Z,4.43
2018-05-31T07:44:06.080Z,4.33
2018-05-31T07:46:33.618Z,4.27
2018-05-31T07:49:01.928Z,5.00
2018-05-31T07:51:29.466Z,4.30
2018-05-31T07:53:57.062Z,4.33
2018-05-31T07:56:24.617Z,4.73
2018-05-31T07:58:52.187Z,4.13
2018-05-31T08:01:19.727Z,3.63
2018-05-31T08:03:47.266Z,3.97
2018-05-31T08:06:15.603Z,3.63
2018-05-31T08:08:43.165Z,3.90
2018-05-31T08:11:10.745Z,4.30
2018-05-31T08:13:38.291Z,4.03
2018-05-31T08:16:05.840Z,3.90
2018-05-31T08:18:33.373Z,3.80
2018-05-31T08:21:01.703Z,4.20
2018-05-31T08:23:29.274Z,4.27
2018-05-31T08:25:56.828Z,4.30
2018-05-31T08:28:24.388Z,4.00
2018-05-31T08:30:51.941Z,4.03
2018-05-31T08:33:19.503Z,4.07
2018-05-31T08:35:47.076Z,4.77
2018-05-31T08:38:14.628Z,4.23
2018-05-31T08:40:42.162Z,4.33
2018-05-31T08:43:10.467Z,4.30
2018-05-31T08:45:37.997Z,4.60
2018-05-31T08:48:05.535Z,4.67
2018-05-31T08:50:33.070Z,4.10
2018-05-31T08:53:00.611Z,4.83
2018-05-31T08:55:28.168Z,4.93
2018-05-31T08:57:55.726Z,4.10
2018-05-31T09:00:24.033Z,4.57
2018-05-31T09:02:51.588Z,4.10
2018-05-31T09:05:19.121Z,4.33
2018-05-31T09:07:46.666Z,4.27
2018-05-31T09:10:14.230Z,5.30
2018-05-31T09:12:41.782Z,4.13
2018-05-31T09:15:09.346Z,4.43
2018-05-31T09:17:36.896Z,3.83
2018-05-31T09:20:04.471Z,3.80
2018-05-31T09:22:32.033Z,5.17
2018-05-31T09:24:59.595Z,4.20
2018-05-31T09:27:27.163Z,5.40
2018-05-31T09:29:54.701Z,4.73
2018-05-31T09:32:22.237Z,4.20
2018-05-31T09:34:50.548Z,4.43
2018-05-31T09:37:18.119Z,4.17
2018-05-31T09:39:45.660Z,4.50
2018-05-31T09:42:13.203Z,4.03
2018-05-31T09:44:40.729Z,4.00
2018-05-31T09:47:08.271Z,4.00
2018-05-31T09:49:36.428Z,4.60
2018-05-31T09:52:04.756Z,4.47
2018-05-31T09:54:32.324Z,4.90
2018-05-31T09:56:59.859Z,4.47
2018-05-31T09:59:27.394Z,4.27
2018-05-31T10:01:55.695Z,4.37
2018-05-31T10:04:23.254Z,4.10
2018-05-31T10:06:50.820Z,4.17
2018-05-31T10:09:18.447Z,4.40
2018-05-31T10:11:45.992Z,4.07
2018-05-31T10:14:13.552Z,4.43
2018-05-31T10:16:41.135Z,4.37
2018-05-31T10:19:08.665Z,3.90
2018-05-31T10:21:36.217Z,4.07
2018-05-31T10:24:03.791Z,4.20
2018-05-31T10:26:31.382Z,4.50
2018-05-31T10:28:59.671Z,5.27
2018-05-31T10:31:27.228Z,4.40
2018-05-31T10:33:54.843Z,4.43
2018-05-31T10:36:22.407Z,4.87
2018-05-31T10:38:49.976Z,4.67
2018-05-31T10:41:17.520Z,4.50
2018-05-31T10:43:45.866Z,4.40
2018-05-31T10:46:13.401Z,4.10
2018-05-31T10:48:40.951Z,4.37
2018-05-31T10:51:08.503Z,3.87
2018-05-31T10:53:36.822Z,4.23
2018-05-31T10:56:04.431Z,4.27
2018-05-31T10:58:31.965Z,3.83
2018-05-31T11:00:59.510Z,4.17
2018-05-31T11:03:27.099Z,3.30
2018-05-31T11:05:54.643Z,5.43
2018-05-31T11:08:22.187Z,4.40
2018-05-31T11:10:49.781Z,4.80
2018-05-31T11:13:17.354Z,3.73
2018-05-31T11:15:44.919Z,4.37
2018-05-31T11:18:12.453Z,3.90
2018-05-31T11:20:40.011Z,3.83
2018-05-31T11:23:07.598Z,3.83
2018-05-31T11:25:35.184Z,4.30
2018-05-31T11:28:02.751Z,4.30
2018-05-31T11:30:30.285Z,4.10
2018-05-31T11:32:57.832Z,4.13
2018-05-31T11:35:25.380Z,4.03
2018-05-31T11:37:53.703Z,4.27
2018-05-31T11:40:21.275Z,3.90
2018-05-31T11:42:48.882Z,4.30
2018-05-31T11:45:17.186Z,4.63
2018-05-31T11:47:44.718Z,4.43
2018-05-31T11:50:12.250Z,4.70
2018-05-31T11:52:39.811Z,4.30
2018-05-31T11:55:07.365Z,4.10
2018-05-31T11:57:34.931Z,4.37
2018-05-31T12:00:02.465Z,4.47
2018-05-31T12:02:29.997Z,4.20
2018-05-31T12:04:57.539Z,4.70
2018-05-31T12:07:25.078Z,4.10
2018-05-31T12:09:52.629Z,4.70
2018-05-31T12:12:20.190Z,3.87
2018-05-31T12:14:47.759Z,4.37
2018-05-31T12:17:15.312Z,4.40
2018-05-31T12:19:42.871Z,4.73
2018-05-31T12:22:10.411Z,4.33
2018-05-31T12:24:37.970Z,5.50
2018-05-31T12:27:05.534Z,4.00
2018-05-31T12:29:33.079Z,4.67
2018-05-31T12:32:00.611Z,3.77
2018-05-31T12:34:28.160Z,4.20
2018-05-31T12:36:55.694Z,4.37
2018-05-31T12:39:24.017Z,3.97
2018-05-31T12:41:51.554Z,4.50
2018-05-31T12:44:19.882Z,4.30
2018-05-31T12:46:47.487Z,4.40
2018-05-31T12:49:15.013Z,4.10
2018-05-31T12:51:42.541Z,3.93
2018-05-31T12:54:10.119Z,4.27
2018-05-31T12:56:37.683Z,4.60
2018-05-31T12:59:05.233Z,4.10
2018-05-31T13:01:32.790Z,3.90
2018-05-31T13:04:01.142Z,4.00
2018-05-31T13:06:28.698Z,4.70
2018-05-31T13:08:56.292Z,4.30
2018-05-31T13:11:24.613Z,4.17
2018-05-31T13:13:52.150Z,4.40
2018-05-31T13:16:19.721Z,4.43
2018-05-31T13:18:47.306Z,4.60
2018-05-31T13:21:14.854Z,4.23
2018-05-31T13:23:42.423Z,3.80
2018-05-31T13:26:09.973Z,4.10
2018-05-31T13:28:37.559Z,3.90
2018-05-31T13:31:05.103Z,4.67
2018-05-31T13:33:32.663Z,4.27
2018-05-31T13:36:00.230Z,4.40
2018-05-31T13:38:27.789Z,4.77
2018-05-31T13:40:56.114Z,4.80
2018-05-31T13:43:23.674Z,4.37
2018-05-31T13:45:51.225Z,4.43
2018-05-31T13:48:18.763Z,4.13
2018-05-31T13:50:47.090Z,4.20
2018-05-31T13:53:14.658Z,4.23
2018-05-31T13:55:42.203Z,4.57
2018-05-31T13:58:09.747Z,4.90
2018-05-31T14:00:37.283Z,4.30
2018-05-31T14:03:04.842Z,4.60
2018-05-31T14:05:32.373Z,4.63
2018-05-31T14:07:59.905Z,4.60
2018-05-31T14:10:27.479Z,4.77
2018-05-31T14:12:55.047Z,4.33
2018-05-31T14:15:22.586Z,3.80
2018-05-31T14:17:50.147Z,4.70
2018-05-31T14:20:17.738Z,4.43
2018-05-31T14:22:45.275Z,3.90
2018-05-31T14:25:13.597Z,4.20
2018-05-31T14:27:41.134Z,7.20
2018-05-31T14:30:08.670Z,4.90
2018-05-31T14:32:36.267Z,4.13
2018-05-31T14:35:03.835Z,4.57
2018-05-31T14:37:31.438Z,4.17
2018-05-31T14:39:58.966Z,4.93
2018-05-31T14:42:26.526Z,4.33
2018-05-31T14:44:54.079Z,4.07
2018-05-31T14:47:21.643Z,4.97
2018-05-31T14:49:49.214Z,4.30
2018-05-31T14:52:16.792Z,4.23
2018-05-31T14:54:44.355Z,4.20
2018-05-31T14:57:11.908Z,5.13
2018-05-31T14:59:39.445Z,3.90
2018-05-31T15:02:07.828Z,4.57
2018-05-31T15:04:36.155Z,4.20
2018-05-31T15:07:03.694Z,4.10
2018-05-31T15:09:32.189Z,3.80
2018-05-31T15:11:59.736Z,4.30
2018-05-31T15:14:27.304Z,4.20
2018-05-31T15:16:55.968Z,4.90
2018-05-31T15:19:23.642Z,4.30
2018-05-31T15:21:51.965Z,4.67
2018-05-31T15:24:19.521Z,4.30
2018-05-31T15:26:47.290Z,4.70
2018-05-31T15:29:14.850Z,5.50
2018-05-31T15:31:42.401Z,4.17
2018-05-31T15:34:09.966Z,4.10
2018-05-31T15:36:37.496Z,3.80
2018-05-31T15:39:05.785Z,4.70
2018-05-31T15:41:33.350Z,4.90
2018-05-31T15:44:01.688Z,4.40
2018-05-31T15:46:29.251Z,4.30
2018-05-31T15:48:56.819Z,4.30
2018-05-31T15:51:24.369Z,4.30
2018-05-31T15:53:51.947Z,4.03
2018-05-31T15:56:20.201Z,4.40
2018-05-31T15:58:47.756Z,4.13
2018-05-31T16:01:15.384Z,4.03
2018-05-31T16:03:42.974Z,3.60
2018-05-31T16:06:11.280Z,3.53
2018-05-31T16:08:38.918Z,4.13
2018-05-31T16:11:06.445Z,4.60
2018-05-31T16:13:34.003Z,4.97
2018-05-31T16:16:01.580Z,4.50
2018-05-31T16:18:29.128Z,4.57
2018-05-31T16:20:56.661Z,4.80
2018-05-31T16:23:24.235Z,4.33
2018-05-31T16:25:51.789Z,4.57
2018-05-31T16:28:19.364Z,4.13
2018-05-31T16:30:46.912Z,4.73
2018-05-31T16:33:14.464Z,4.77
2018-05-31T16:35:42.770Z,4.87
2018-05-31T16:38:10.352Z,4.43
2018-05-31T16:40:37.968Z,5.00
2018-05-31T16:43:06.303Z,4.60
2018-05-31T16:45:33.852Z,4.60
2018-05-31T16:48:01.401Z,5.93
2018-05-31T16:50:28.967Z,4.83
2018-05-31T16:52:56.521Z,4.23
2018-05-31T16:55:24.831Z,4.97
2018-05-31T16:57:52.366Z,4.50
2018-05-31T17:00:20.668Z,4.70
2018-05-31T17:02:48.214Z,4.50
2018-05-31T17:05:16.538Z,5.40
2018-05-31T17:07:44.101Z,4.77
2018-05-31T17:10:11.633Z,4.50
2018-05-31T17:12:39.173Z,5.00
2018-05-31T17:15:07.465Z,4.67
2018-05-31T17:17:35.784Z,5.10
2018-05-31T17:20:03.326Z,5.07
2018-05-31T17:22:30.877Z,4.33
2018-05-31T17:24:58.434Z,4.40
2018-05-31T17:27:26.753Z,4.73
2018-05-31T17:29:54.281Z,5.03
2018-05-31T17:32:22.591Z,4.70
2018-05-31T17:34:50.154Z,4.93
2018-05-31T17:37:17.709Z,4.97
2018-05-31T17:39:45.896Z,4.63
2018-05-31T17:42:13.504Z,4.10
2018-05-31T17:44:41.042Z,4.90
2018-05-31T17:47:08.610Z,4.40
2018-05-31T17:49:36.153Z,5.17
2018-05-31T17:52:03.708Z,5.67
2018-05-31T17:54:31.247Z,5.10
2018-05-31T17:56:59.545Z,5.10
2018-05-31T17:59:27.119Z,5.17
2018-05-31T18:01:54.663Z,5.60
2018-05-31T18:04:22.976Z,5.70
2018-05-31T18:06:50.538Z,5.30
2018-05-31T18:09:18.084Z,4.67
2018-05-31T18:11:45.613Z,4.80
2018-05-31T18:14:13.151Z,4.90
2018-05-31T18:16:40.690Z,5.00
2018-05-31T18:19:08.235Z,5.03
2018-05-31T18:21:35.806Z,5.43
2018-05-31T18:24:03.383Z,5.43
2018-05-31T18:26:30.949Z,5.07
2018-05-31T18:28:58.499Z,6.10
2018-05-31T18:31:26.036Z,5.60
2018-05-31T18:33:54.370Z,5.53
2018-05-31T18:36:21.926Z,5.20
2018-05-31T18:38:49.471Z,5.43
2018-05-31T18:41:17.030Z,4.83
2018-05-31T18:43:44.599Z,5.97
2018-05-31T18:46:12.176Z,6.07
2018-05-31T18:48:39.747Z,5.30
2018-05-31T18:51:07.298Z,6.07
2018-05-31T18:53:34.859Z,4.63
2018-05-31T18:56:02.403Z,5.80
2018-05-31T18:58:30.727Z,7.10
2018-05-31T19:00:58.285Z,6.63
2018-05-31T19:03:25.839Z,5.97
2018-05-31T19:05:53.386Z,5.90
2018-05-31T19:08:20.926Z,6.07
2018-05-31T19:10:49.242Z,6.47
2018-05-31T19:13:22.394Z,5.20
2018-05-31T19:15:49.962Z,6.10
2018-05-31T19:18:23.278Z,5.87
2018-05-31T19:20:51.614Z,6.50
2018-05-31T19:23:19.183Z,8.30
2018-05-31T19:25:46.731Z,6.87
2018-05-31T19:28:14.276Z,6.40
2018-05-31T19:30:47.441Z,5.77
2018-05-31T19:33:15.755Z,6.47
2018-05-31T19:35:48.941Z,5.60
2018-05-31T19:38:16.483Z,6.80
2018-05-31T19:40:44.831Z,6.60
2018-05-31T19:46:19.270Z,7.10
2018-05-31T19:48:47.611Z,6.50
2018-05-31T19:51:20.781Z,6.10
2018-05-31T19:53:48.382Z,6.90
2018-05-31T19:56:15.926Z,6.90
2018-05-31T19:58:49.170Z,6.70
2018-05-31T20:01:22.290Z,7.27
2018-05-31T20:03:49.864Z,7.17
2018-05-31T20:06:17.469Z,7.27
2018-05-31T20:08:45.034Z,7.00
2018-05-31T20:11:12.610Z,7.23
2018-05-31T20:13:40.183Z,7.90
2018-05-31T20:16:08.538Z,7.40
2018-05-31T20:18:36.078Z,7.63
2018-05-31T20:21:03.609Z,7.47
2018-05-31T20:23:31.200Z,6.67
2018-05-31T20:25:58.743Z,7.53
2018-05-31T20:28:26.283Z,7.13
2018-05-31T20:30:53.866Z,7.30
2018-05-31T20:33:21.367Z,6.93
2018-05-31T20:35:48.919Z,7.90
2018-05-31T20:38:16.501Z,7.40
2018-05-31T20:40:44.054Z,8.20
2018-05-31T20:43:11.605Z,6.90
2018-05-31T20:45:39.182Z,7.87
2018-05-31T20:48:06.731Z,7.60
2018-05-31T20:50:34.275Z,7.83
2018-05-31T20:53:02.613Z,7.03
2018-05-31T20:55:30.160Z,7.80
2018-05-31T20:57:57.726Z,7.90
2018-05-31T21:00:25.270Z,8.67
2018-05-31T21:02:52.824Z,8.57
2018-05-31T21:05:20.359Z,7.87
2018-05-31T21:07:47.914Z,8.50
2018-05-31T21:10:15.532Z,7.80
2018-05-31T21:12:43.064Z,8.67
2018-05-31T21:15:11.369Z,7.97
2018-05-31T21:17:38.921Z,7.60
2018-05-31T21:20:06.519Z,8.73
2018-05-31T21:22:34.035Z,7.50
2018-05-31T21:25:02.370Z,8.68
2018-05-31T21:27:29.951Z,7.60
2018-05-31T21:29:57.497Z,7.65
2018-05-31T21:32:25.037Z,8.70
2018-05-31T21:34:52.642Z,6.90
2018-05-31T21:37:20.189Z,8.63
2018-05-31T21:39:47.754Z,7.70
2018-05-31T21:42:15.316Z,8.57
2018-05-31T21:44:42.864Z,8.40
2018-05-31T21:47:10.471Z,8.70
2018-05-31T21:49:38.027Z,8.45
2018-05-31T21:52:05.604Z,8.05
2018-05-31T21:54:33.175Z,7.55
2018-05-31T21:57:00.742Z,7.78
2018-05-31T21:59:29.070Z,8.00
2018-05-31T22:01:56.618Z,7.95
2018-05-31T22:04:24.191Z,8.07
2018-05-31T22:06:51.743Z,8.20
2018-05-31T22:09:19.294Z,8.75
2018-05-31T22:11:47.603Z,7.72
2018-05-31T22:14:15.170Z,7.20
2018-05-31T22:16:42.739Z,7.90
2018-05-31T22:19:10.350Z,7.55
2018-05-31T22:21:37.898Z,8.18
2018-05-31T22:24:05.464Z,8.02
2018-05-31T22:26:33.031Z,8.50
2018-05-31T22:29:00.587Z,7.50
2018-05-31T22:31:28.130Z,7.97
2018-05-31T22:33:55.695Z,9.15
2018-05-31T22:36:23.262Z,8.20
2018-05-31T22:38:50.827Z,8.23
2018-05-31T22:41:18.365Z,8.70
2018-05-31T22:43:45.919Z,8.13
2018-05-31T22:46:13.468Z,7.18
2018-05-31T22:48:41.803Z,8.02
2018-05-31T22:51:09.345Z,8.10
2018-05-31T22:53:36.910Z,7.00
2018-05-31T22:56:04.479Z,7.57
2018-05-31T22:58:32.013Z,7.72
2018-05-31T23:01:00.347Z,8.20
2018-05-31T23:03:27.899Z,7.85
2018-05-31T23:05:55.451Z,8.15
2018-05-31T23:08:23.018Z,7.28
2018-05-31T23:10:50.593Z,9.13
2018-05-31T23:13:18.205Z,8.60
2018-05-31T23:15:46.516Z,9.40
2018-05-31T23:18:14.081Z,8.88
2018-05-31T23:20:41.648Z,10.55
2018-05-31T23:23:09.211Z,10.63
2018-05-31T23:25:36.754Z,10.13
2018-05-31T23:28:05.070Z,30.05
2018-05-31T23:30:32.618Z,19.33
2018-05-31T23:33:00.178Z,19.23
2018-05-31T23:35:27.729Z,13.95
2018-05-31T23:37:55.282Z,12.52
2018-05-31T23:40:23.604Z,10.43
2018-05-31T23:42:51.141Z,9.60
2018-05-31T23:45:18.711Z,9.90
2018-05-31T23:47:46.286Z,9.05
2018-05-31T23:50:13.885Z,8.93
2018-05-31T23:52:41.455Z,9.35
2018-05-31T23:55:08.999Z,9.52
2018-05-31T23:57:36.552Z,9.15
